sensor_id;sensor_type;location;lat;lon;timestamp;P1;durP1;ratioP1;P2;durP2;ratioP2
54408;SDS011;40315;48.620;9.828;2023-03-01T00:02:21;13.90;;;9.17;;
54408;SDS011;40315;48.620;9.828;2023-03-01T00:04:48;16.97;;;9.80;;
54408;SDS011;40315;48.620;9.828;2023-03-01T00:07:17;15.10;;;9.07;;
54408;SDS011;40315;48.620;9.828;2023-03-01T00:09:44;15.13;;;9.20;;
54408;SDS011;40315;48.620;9.828;2023-03-01T00:12:11;16.83;;;9.33;;
54408;SDS011;40315;48.620;9.828;2023-03-01T00:14:38;14.00;;;8.80;;
54408;SDS011;40315;48.620;9.828;2023-03-01T00:17:05;16.67;;;9.67;;
54408;SDS011;40315;48.620;9.828;2023-03-01T00:19:32;18.00;;;10.10;;
54408;SDS011;40315;48.620;9.828;2023-03-01T00:21:59;15.97;;;10.00;;
54408;SDS011;40315;48.620;9.828;2023-03-01T00:24:28;16.90;;;9.77;;
54408;SDS011;40315;48.620;9.828;2023-03-01T00:26:55;16.10;;;9.17;;
54408;SDS011;40315;48.620;9.828;2023-03-01T00:29:23;15.93;;;9.23;;
54408;SDS011;40315;48.620;9.828;2023-03-01T00:31:50;17.60;;;9.43;;
54408;SDS011;40315;48.620;9.828;2023-03-01T00:34:17;15.87;;;9.20;;
54408;SDS011;40315;48.620;9.828;2023-03-01T00:36:44;17.50;;;9.50;;
54408;SDS011;40315;48.620;9.828;2023-03-01T00:39:12;15.83;;;9.13;;
54408;SDS011;40315;48.620;9.828;2023-03-01T00:41:41;16.37;;;9.80;;
54408;SDS011;40315;48.620;9.828;2023-03-01T00:44:09;17.60;;;9.53;;
54408;SDS011;40315;48.620;9.828;2023-03-01T00:46:36;18.63;;;9.77;;
54408;SDS011;40315;48.620;9.828;2023-03-01T00:49:04;18.80;;;10.27;;
54408;SDS011;40315;48.620;9.828;2023-03-01T00:51:31;15.47;;;9.27;;
54408;SDS011;40315;48.620;9.828;2023-03-01T00:54:01;15.90;;;9.07;;
54408;SDS011;40315;48.620;9.828;2023-03-01T00:56:29;15.20;;;8.90;;
54408;SDS011;40315;48.620;9.828;2023-03-01T00:58:58;15.80;;;9.67;;
54408;SDS011;40315;48.620;9.828;2023-03-01T01:01:26;15.27;;;8.90;;
54408;SDS011;40315;48.620;9.828;2023-03-01T01:03:56;15.63;;;9.60;;
54408;SDS011;40315;48.620;9.828;2023-03-01T01:06:25;16.73;;;9.40;;
54408;SDS011;40315;48.620;9.828;2023-03-01T01:08:53;19.53;;;10.73;;
54408;SDS011;40315;48.620;9.828;2023-03-01T01:11:21;15.50;;;9.33;;
54408;SDS011;40315;48.620;9.828;2023-03-01T01:13:50;17.63;;;10.00;;
54408;SDS011;40315;48.620;9.828;2023-03-01T01:16:21;16.37;;;9.87;;
54408;SDS011;40315;48.620;9.828;2023-03-01T01:18:49;18.50;;;10.07;;
54408;SDS011;40315;48.620;9.828;2023-03-01T01:21:17;19.07;;;10.27;;
54408;SDS011;40315;48.620;9.828;2023-03-01T01:23:46;19.87;;;11.03;;
54408;SDS011;40315;48.620;9.828;2023-03-01T01:26:14;17.20;;;10.37;;
54408;SDS011;40315;48.620;9.828;2023-03-01T01:28:42;20.27;;;11.03;;
54408;SDS011;40315;48.620;9.828;2023-03-01T01:31:09;18.50;;;10.53;;
54408;SDS011;40315;48.620;9.828;2023-03-01T01:33:37;18.20;;;10.33;;
54408;SDS011;40315;48.620;9.828;2023-03-01T01:36:05;17.73;;;10.20;;
54408;SDS011;40315;48.620;9.828;2023-03-01T01:38:33;17.50;;;10.07;;
54408;SDS011;40315;48.620;9.828;2023-03-01T01:41:03;16.53;;;9.93;;
54408;SDS011;40315;48.620;9.828;2023-03-01T01:43:32;18.73;;;10.63;;
54408;SDS011;40315;48.620;9.828;2023-03-01T01:49:27;19.50;;;10.67;;
54408;SDS011;40315;48.620;9.828;2023-03-01T01:52:01;17.83;;;10.77;;
54408;SDS011;40315;48.620;9.828;2023-03-01T01:54:37;18.90;;;10.27;;
54408;SDS011;40315;48.620;9.828;2023-03-01T01:57:10;16.17;;;9.83;;
54408;SDS011;40315;48.620;9.828;2023-03-01T01:59:39;20.23;;;10.67;;
54408;SDS011;40315;48.620;9.828;2023-03-01T02:02:11;17.70;;;10.43;;
54408;SDS011;40315;48.620;9.828;2023-03-01T02:04:41;18.97;;;10.03;;
54408;SDS011;40315;48.620;9.828;2023-03-01T02:07:10;18.70;;;10.30;;
54408;SDS011;40315;48.620;9.828;2023-03-01T02:09:41;17.17;;;10.53;;
54408;SDS011;40315;48.620;9.828;2023-03-01T02:12:10;17.50;;;9.90;;
54408;SDS011;40315;48.620;9.828;2023-03-01T02:14:37;15.63;;;9.83;;
54408;SDS011;40315;48.620;9.828;2023-03-01T02:17:04;17.87;;;10.67;;
54408;SDS011;40315;48.620;9.828;2023-03-01T02:19:35;23.43;;;12.83;;
54408;SDS011;40315;48.620;9.828;2023-03-01T02:22:16;20.83;;;11.23;;
54408;SDS011;40315;48.620;9.828;2023-03-01T02:24:50;18.50;;;11.00;;
54408;SDS011;40315;48.620;9.828;2023-03-01T02:27:33;22.13;;;11.60;;
54408;SDS011;40315;48.620;9.828;2023-03-01T02:30:06;20.07;;;11.20;;
54408;SDS011;40315;48.620;9.828;2023-03-01T02:32:38;18.00;;;10.70;;
54408;SDS011;40315;48.620;9.828;2023-03-01T02:35:07;20.20;;;10.87;;
54408;SDS011;40315;48.620;9.828;2023-03-01T02:37:38;18.10;;;11.07;;
54408;SDS011;40315;48.620;9.828;2023-03-01T02:40:07;20.57;;;11.53;;
54408;SDS011;40315;48.620;9.828;2023-03-01T02:42:40;20.23;;;10.83;;
54408;SDS011;40315;48.620;9.828;2023-03-01T02:45:15;21.63;;;11.47;;
54408;SDS011;40315;48.620;9.828;2023-03-01T02:47:42;23.17;;;12.80;;
54408;SDS011;40315;48.620;9.828;2023-03-01T02:50:12;21.07;;;12.17;;
54408;SDS011;40315;48.620;9.828;2023-03-01T02:52:48;20.70;;;11.20;;
54408;SDS011;40315;48.620;9.828;2023-03-01T02:55:25;20.57;;;12.13;;
54408;SDS011;40315;48.620;9.828;2023-03-01T02:57:53;17.30;;;10.13;;
54408;SDS011;40315;48.620;9.828;2023-03-01T03:00:24;18.10;;;11.27;;
54408;SDS011;40315;48.620;9.828;2023-03-01T03:02:56;20.33;;;11.53;;
54408;SDS011;40315;48.620;9.828;2023-03-01T03:05:25;20.70;;;11.27;;
54408;SDS011;40315;48.620;9.828;2023-03-01T03:07:56;19.77;;;11.57;;
54408;SDS011;40315;48.620;9.828;2023-03-01T03:10:27;19.27;;;11.07;;
54408;SDS011;40315;48.620;9.828;2023-03-01T03:12:57;20.63;;;12.33;;
54408;SDS011;40315;48.620;9.828;2023-03-01T03:15:27;23.90;;;11.33;;
54408;SDS011;40315;48.620;9.828;2023-03-01T03:17:54;19.67;;;11.37;;
54408;SDS011;40315;48.620;9.828;2023-03-01T03:20:25;21.33;;;11.73;;
54408;SDS011;40315;48.620;9.828;2023-03-01T03:22:54;20.67;;;12.63;;
54408;SDS011;40315;48.620;9.828;2023-03-01T03:25:25;19.07;;;11.27;;
54408;SDS011;40315;48.620;9.828;2023-03-01T03:27:53;19.23;;;11.83;;
54408;SDS011;40315;48.620;9.828;2023-03-01T03:30:22;17.13;;;11.30;;
54408;SDS011;40315;48.620;9.828;2023-03-01T03:32:52;17.67;;;11.03;;
54408;SDS011;40315;48.620;9.828;2023-03-01T03:35:19;18.97;;;11.87;;
54408;SDS011;40315;48.620;9.828;2023-03-01T03:37:49;32.87;;;18.10;;
54408;SDS011;40315;48.620;9.828;2023-03-01T03:40:32;28.30;;;15.53;;
54408;SDS011;40315;48.620;9.828;2023-03-01T03:43:00;27.53;;;14.73;;
54408;SDS011;40315;48.620;9.828;2023-03-01T03:45:28;25.63;;;14.13;;
54408;SDS011;40315;48.620;9.828;2023-03-01T03:47:56;25.93;;;14.60;;
54408;SDS011;40315;48.620;9.828;2023-03-01T03:50:23;23.07;;;13.23;;
54408;SDS011;40315;48.620;9.828;2023-03-01T03:52:50;22.77;;;12.60;;
54408;SDS011;40315;48.620;9.828;2023-03-01T03:55:18;19.77;;;11.87;;
54408;SDS011;40315;48.620;9.828;2023-03-01T03:57:45;21.40;;;12.67;;
54408;SDS011;40315;48.620;9.828;2023-03-01T04:00:17;19.23;;;11.57;;
54408;SDS011;40315;48.620;9.828;2023-03-01T04:02:46;22.37;;;12.60;;
54408;SDS011;40315;48.620;9.828;2023-03-01T04:05:16;19.13;;;11.47;;
54408;SDS011;40315;48.620;9.828;2023-03-01T04:07:45;22.30;;;11.93;;
54408;SDS011;40315;48.620;9.828;2023-03-01T04:10:12;22.47;;;12.73;;
54408;SDS011;40315;48.620;9.828;2023-03-01T04:12:41;20.67;;;11.57;;
54408;SDS011;40315;48.620;9.828;2023-03-01T04:15:09;20.30;;;12.33;;
54408;SDS011;40315;48.620;9.828;2023-03-01T04:17:41;22.03;;;12.20;;
54408;SDS011;40315;48.620;9.828;2023-03-01T04:20:09;18.97;;;12.00;;
54408;SDS011;40315;48.620;9.828;2023-03-01T04:22:39;23.13;;;12.27;;
54408;SDS011;40315;48.620;9.828;2023-03-01T04:25:06;18.33;;;11.60;;
54408;SDS011;40315;48.620;9.828;2023-03-01T04:27:34;19.63;;;11.53;;
54408;SDS011;40315;48.620;9.828;2023-03-01T04:30:02;22.83;;;12.07;;
54408;SDS011;40315;48.620;9.828;2023-03-01T04:32:30;22.37;;;12.03;;
54408;SDS011;40315;48.620;9.828;2023-03-01T04:34:57;20.10;;;12.07;;
54408;SDS011;40315;48.620;9.828;2023-03-01T04:37:25;21.00;;;12.07;;
54408;SDS011;40315;48.620;9.828;2023-03-01T04:39:55;21.07;;;11.53;;
54408;SDS011;40315;48.620;9.828;2023-03-01T04:42:23;20.80;;;12.97;;
54408;SDS011;40315;48.620;9.828;2023-03-01T04:44:50;20.47;;;12.33;;
54408;SDS011;40315;48.620;9.828;2023-03-01T04:47:17;22.60;;;12.70;;
54408;SDS011;40315;48.620;9.828;2023-03-01T04:49:44;21.80;;;12.63;;
54408;SDS011;40315;48.620;9.828;2023-03-01T04:52:11;23.87;;;12.87;;
54408;SDS011;40315;48.620;9.828;2023-03-01T04:54:40;20.50;;;12.07;;
54408;SDS011;40315;48.620;9.828;2023-03-01T04:57:09;24.23;;;13.47;;
54408;SDS011;40315;48.620;9.828;2023-03-01T04:59:37;23.47;;;12.37;;
54408;SDS011;40315;48.620;9.828;2023-03-01T05:02:04;23.00;;;12.97;;
54408;SDS011;40315;48.620;9.828;2023-03-01T05:04:31;20.73;;;12.63;;
54408;SDS011;40315;48.620;9.828;2023-03-01T05:06:58;20.50;;;12.10;;
54408;SDS011;40315;48.620;9.828;2023-03-01T05:09:25;19.53;;;11.90;;
54408;SDS011;40315;48.620;9.828;2023-03-01T05:11:52;22.57;;;13.17;;
54408;SDS011;40315;48.620;9.828;2023-03-01T05:14:20;22.57;;;13.57;;
54408;SDS011;40315;48.620;9.828;2023-03-01T05:16:50;22.97;;;13.47;;
54408;SDS011;40315;48.620;9.828;2023-03-01T05:19:17;25.43;;;14.00;;
54408;SDS011;40315;48.620;9.828;2023-03-01T05:21:47;24.20;;;14.50;;
54408;SDS011;40315;48.620;9.828;2023-03-01T05:24:30;27.27;;;15.70;;
54408;SDS011;40315;48.620;9.828;2023-03-01T05:26:58;23.47;;;14.03;;
54408;SDS011;40315;48.620;9.828;2023-03-01T05:29:27;26.50;;;15.93;;
54408;SDS011;40315;48.620;9.828;2023-03-01T05:31:57;27.77;;;16.90;;
54408;SDS011;40315;48.620;9.828;2023-03-01T05:34:26;27.10;;;16.83;;
54408;SDS011;40315;48.620;9.828;2023-03-01T05:36:55;23.20;;;15.20;;
54408;SDS011;40315;48.620;9.828;2023-03-01T05:39:23;23.37;;;14.40;;
54408;SDS011;40315;48.620;9.828;2023-03-01T05:41:51;21.00;;;13.43;;
54408;SDS011;40315;48.620;9.828;2023-03-01T05:44:19;19.73;;;13.07;;
54408;SDS011;40315;48.620;9.828;2023-03-01T05:46:48;19.90;;;11.77;;
54408;SDS011;40315;48.620;9.828;2023-03-01T05:49:16;23.27;;;13.03;;
54408;SDS011;40315;48.620;9.828;2023-03-01T05:51:43;20.33;;;11.90;;
54408;SDS011;40315;48.620;9.828;2023-03-01T05:54:14;21.27;;;11.90;;
54408;SDS011;40315;48.620;9.828;2023-03-01T05:56:42;21.90;;;12.73;;
54408;SDS011;40315;48.620;9.828;2023-03-01T05:59:10;21.53;;;12.60;;
54408;SDS011;40315;48.620;9.828;2023-03-01T06:01:38;23.60;;;12.67;;
54408;SDS011;40315;48.620;9.828;2023-03-01T06:04:07;19.67;;;12.60;;
54408;SDS011;40315;48.620;9.828;2023-03-01T06:06:35;19.50;;;12.03;;
54408;SDS011;40315;48.620;9.828;2023-03-01T06:09:02;24.67;;;13.13;;
54408;SDS011;40315;48.620;9.828;2023-03-01T06:11:29;21.53;;;12.40;;
54408;SDS011;40315;48.620;9.828;2023-03-01T06:13:56;22.23;;;11.87;;
54408;SDS011;40315;48.620;9.828;2023-03-01T06:16:23;25.47;;;12.37;;
54408;SDS011;40315;48.620;9.828;2023-03-01T06:18:53;21.70;;;12.87;;
54408;SDS011;40315;48.620;9.828;2023-03-01T06:21:21;23.70;;;13.57;;
54408;SDS011;40315;48.620;9.828;2023-03-01T06:23:48;21.50;;;13.10;;
54408;SDS011;40315;48.620;9.828;2023-03-01T06:26:17;19.23;;;12.73;;
54408;SDS011;40315;48.620;9.828;2023-03-01T06:28:44;24.93;;;11.73;;
54408;SDS011;40315;48.620;9.828;2023-03-01T06:31:11;21.50;;;12.37;;
54408;SDS011;40315;48.620;9.828;2023-03-01T06:33:38;20.83;;;12.60;;
54408;SDS011;40315;48.620;9.828;2023-03-01T06:36:06;21.17;;;12.33;;
54408;SDS011;40315;48.620;9.828;2023-03-01T06:38:35;22.37;;;13.07;;
54408;SDS011;40315;48.620;9.828;2023-03-01T06:41:03;20.30;;;12.60;;
54408;SDS011;40315;48.620;9.828;2023-03-01T06:43:30;25.27;;;13.00;;
54408;SDS011;40315;48.620;9.828;2023-03-01T06:45:57;24.67;;;13.40;;
54408;SDS011;40315;48.620;9.828;2023-03-01T06:48:24;21.73;;;12.60;;
54408;SDS011;40315;48.620;9.828;2023-03-01T06:50:51;26.73;;;13.87;;
54408;SDS011;40315;48.620;9.828;2023-03-01T06:53:20;24.00;;;12.53;;
54408;SDS011;40315;48.620;9.828;2023-03-01T06:55:53;22.20;;;12.73;;
54408;SDS011;40315;48.620;9.828;2023-03-01T06:58:20;21.57;;;12.23;;
54408;SDS011;40315;48.620;9.828;2023-03-01T07:00:47;21.13;;;12.17;;
54408;SDS011;40315;48.620;9.828;2023-03-01T07:03:18;22.47;;;12.47;;
54408;SDS011;40315;48.620;9.828;2023-03-01T07:05:45;25.00;;;14.40;;
54408;SDS011;40315;48.620;9.828;2023-03-01T07:08:16;20.67;;;12.57;;
54408;SDS011;40315;48.620;9.828;2023-03-01T07:10:43;23.17;;;13.87;;
54408;SDS011;40315;48.620;9.828;2023-03-01T07:13:12;24.07;;;13.57;;
54408;SDS011;40315;48.620;9.828;2023-03-01T07:15:42;23.27;;;12.73;;
54408;SDS011;40315;48.620;9.828;2023-03-01T07:18:11;25.87;;;14.63;;
54408;SDS011;40315;48.620;9.828;2023-03-01T07:20:38;23.90;;;13.17;;
54408;SDS011;40315;48.620;9.828;2023-03-01T07:23:05;21.03;;;13.67;;
54408;SDS011;40315;48.620;9.828;2023-03-01T07:25:32;24.33;;;14.00;;
54408;SDS011;40315;48.620;9.828;2023-03-01T07:27:59;22.97;;;14.17;;
54408;SDS011;40315;48.620;9.828;2023-03-01T07:30:28;22.93;;;14.13;;
54408;SDS011;40315;48.620;9.828;2023-03-01T07:32:56;20.93;;;13.63;;
54408;SDS011;40315;48.620;9.828;2023-03-01T07:35:24;21.43;;;12.83;;
54408;SDS011;40315;48.620;9.828;2023-03-01T07:37:52;22.67;;;13.60;;
54408;SDS011;40315;48.620;9.828;2023-03-01T07:40:19;27.40;;;14.33;;
54408;SDS011;40315;48.620;9.828;2023-03-01T07:42:46;23.07;;;13.27;;
54408;SDS011;40315;48.620;9.828;2023-03-01T07:45:13;21.80;;;13.57;;
54408;SDS011;40315;48.620;9.828;2023-03-01T07:47:42;22.83;;;13.17;;
54408;SDS011;40315;48.620;9.828;2023-03-01T07:50:09;23.63;;;14.27;;
54408;SDS011;40315;48.620;9.828;2023-03-01T07:52:38;23.20;;;13.47;;
54408;SDS011;40315;48.620;9.828;2023-03-01T07:55:08;23.00;;;12.27;;
54408;SDS011;40315;48.620;9.828;2023-03-01T07:57:37;24.83;;;13.60;;
54408;SDS011;40315;48.620;9.828;2023-03-01T08:00:05;21.50;;;13.50;;
54408;SDS011;40315;48.620;9.828;2023-03-01T08:02:43;24.20;;;13.67;;
54408;SDS011;40315;48.620;9.828;2023-03-01T08:05:10;27.47;;;13.43;;
54408;SDS011;40315;48.620;9.828;2023-03-01T08:07:39;23.87;;;14.60;;
54408;SDS011;40315;48.620;9.828;2023-03-01T08:10:07;24.83;;;13.67;;
54408;SDS011;40315;48.620;9.828;2023-03-01T08:12:34;25.73;;;13.83;;
54408;SDS011;40315;48.620;9.828;2023-03-01T08:15:02;24.40;;;14.43;;
54408;SDS011;40315;48.620;9.828;2023-03-01T08:17:31;27.00;;;14.27;;
54408;SDS011;40315;48.620;9.828;2023-03-01T08:20:02;21.57;;;13.20;;
54408;SDS011;40315;48.620;9.828;2023-03-01T08:22:31;20.93;;;12.67;;
54408;SDS011;40315;48.620;9.828;2023-03-01T08:24:58;21.97;;;13.90;;
54408;SDS011;40315;48.620;9.828;2023-03-01T08:27:25;24.07;;;13.33;;
54408;SDS011;40315;48.620;9.828;2023-03-01T08:29:52;24.17;;;13.03;;
54408;SDS011;40315;48.620;9.828;2023-03-01T08:32:19;21.83;;;12.73;;
54408;SDS011;40315;48.620;9.828;2023-03-01T08:34:48;22.73;;;13.70;;
54408;SDS011;40315;48.620;9.828;2023-03-01T08:37:17;22.93;;;13.20;;
54408;SDS011;40315;48.620;9.828;2023-03-01T08:39:43;21.70;;;12.80;;
54408;SDS011;40315;48.620;9.828;2023-03-01T08:42:10;22.37;;;13.90;;
54408;SDS011;40315;48.620;9.828;2023-03-01T08:44:37;22.73;;;13.60;;
54408;SDS011;40315;48.620;9.828;2023-03-01T08:47:04;22.30;;;13.63;;
54408;SDS011;40315;48.620;9.828;2023-03-01T08:49:31;22.93;;;13.63;;
54408;SDS011;40315;48.620;9.828;2023-03-01T08:51:58;19.67;;;12.80;;
54408;SDS011;40315;48.620;9.828;2023-03-01T08:54:27;22.37;;;13.90;;
54408;SDS011;40315;48.620;9.828;2023-03-01T08:56:54;22.93;;;12.83;;
54408;SDS011;40315;48.620;9.828;2023-03-01T08:59:25;20.17;;;12.97;;
54408;SDS011;40315;48.620;9.828;2023-03-01T09:01:52;22.60;;;13.57;;
54408;SDS011;40315;48.620;9.828;2023-03-01T09:04:19;23.97;;;13.37;;
54408;SDS011;40315;48.620;9.828;2023-03-01T09:06:46;21.13;;;13.67;;
54408;SDS011;40315;48.620;9.828;2023-03-01T09:09:14;24.93;;;13.77;;
54408;SDS011;40315;48.620;9.828;2023-03-01T09:11:43;21.30;;;13.33;;
54408;SDS011;40315;48.620;9.828;2023-03-01T09:14:11;21.30;;;13.07;;
54408;SDS011;40315;48.620;9.828;2023-03-01T09:16:39;22.30;;;12.80;;
54408;SDS011;40315;48.620;9.828;2023-03-01T09:19:06;21.70;;;13.00;;
54408;SDS011;40315;48.620;9.828;2023-03-01T09:21:33;20.70;;;12.90;;
54408;SDS011;40315;48.620;9.828;2023-03-01T09:24:00;21.67;;;13.50;;
54408;SDS011;40315;48.620;9.828;2023-03-01T09:26:27;23.50;;;13.80;;
54408;SDS011;40315;48.620;9.828;2023-03-01T09:28:56;21.23;;;12.90;;
54408;SDS011;40315;48.620;9.828;2023-03-01T09:31:23;21.67;;;13.33;;
54408;SDS011;40315;48.620;9.828;2023-03-01T09:33:51;19.87;;;13.33;;
54408;SDS011;40315;48.620;9.828;2023-03-01T09:36:22;20.77;;;13.00;;
54408;SDS011;40315;48.620;9.828;2023-03-01T09:38:51;22.83;;;12.40;;
54408;SDS011;40315;48.620;9.828;2023-03-01T09:41:26;18.87;;;13.03;;
54408;SDS011;40315;48.620;9.828;2023-03-01T09:44:08;22.00;;;13.00;;
54408;SDS011;40315;48.620;9.828;2023-03-01T09:46:41;21.58;;;13.18;;
54408;SDS011;40315;48.620;9.828;2023-03-01T09:49:14;20.90;;;12.00;;
54408;SDS011;40315;48.620;9.828;2023-03-01T09:51:43;19.77;;;12.88;;
54408;SDS011;40315;48.620;9.828;2023-03-01T09:54:21;21.00;;;13.40;;
54408;SDS011;40315;48.620;9.828;2023-03-01T09:56:53;23.33;;;13.77;;
54408;SDS011;40315;48.620;9.828;2023-03-01T09:59:29;21.88;;;13.20;;
54408;SDS011;40315;48.620;9.828;2023-03-01T10:02:05;22.70;;;13.93;;
54408;SDS011;40315;48.620;9.828;2023-03-01T10:04:48;22.25;;;14.43;;
54408;SDS011;40315;48.620;9.828;2023-03-01T10:07:20;23.03;;;12.97;;
54408;SDS011;40315;48.620;9.828;2023-03-01T10:09:54;19.10;;;12.57;;
54408;SDS011;40315;48.620;9.828;2023-03-01T10:12:22;22.20;;;13.63;;
54408;SDS011;40315;48.620;9.828;2023-03-01T10:14:55;21.67;;;13.80;;
54408;SDS011;40315;48.620;9.828;2023-03-01T10:17:30;19.42;;;12.45;;
54408;SDS011;40315;48.620;9.828;2023-03-01T10:20:16;20.92;;;12.65;;
54408;SDS011;40315;48.620;9.828;2023-03-01T10:22:46;20.55;;;13.10;;
54408;SDS011;40315;48.620;9.828;2023-03-01T10:25:17;19.60;;;12.57;;
54408;SDS011;40315;48.620;9.828;2023-03-01T10:27:51;19.38;;;12.18;;
54408;SDS011;40315;48.620;9.828;2023-03-01T10:30:28;19.90;;;12.98;;
54408;SDS011;40315;48.620;9.828;2023-03-01T10:33:01;18.45;;;12.55;;
54408;SDS011;40315;48.620;9.828;2023-03-01T10:35:31;17.40;;;12.18;;
54408;SDS011;40315;48.620;9.828;2023-03-01T10:38:04;23.15;;;13.35;;
54408;SDS011;40315;48.620;9.828;2023-03-01T10:40:32;20.92;;;13.18;;
54408;SDS011;40315;48.620;9.828;2023-03-01T10:43:02;20.50;;;13.60;;
54408;SDS011;40315;48.620;9.828;2023-03-01T10:45:33;24.65;;;13.18;;
54408;SDS011;40315;48.620;9.828;2023-03-01T10:48:06;23.88;;;13.80;;
54408;SDS011;40315;48.620;9.828;2023-03-01T10:50:39;19.85;;;12.60;;
54408;SDS011;40315;48.620;9.828;2023-03-01T10:53:16;20.63;;;13.25;;
54408;SDS011;40315;48.620;9.828;2023-03-01T10:55:49;19.27;;;13.05;;
54408;SDS011;40315;48.620;9.828;2023-03-01T10:58:24;18.45;;;12.63;;
54408;SDS011;40315;48.620;9.828;2023-03-01T11:00:53;20.60;;;12.85;;
54408;SDS011;40315;48.620;9.828;2023-03-01T11:03:24;17.45;;;12.10;;
54408;SDS011;40315;48.620;9.828;2023-03-01T11:05:55;19.27;;;12.40;;
54408;SDS011;40315;48.620;9.828;2023-03-01T11:08:30;20.70;;;13.48;;
54408;SDS011;40315;48.620;9.828;2023-03-01T11:11:07;19.17;;;12.77;;
54408;SDS011;40315;48.620;9.828;2023-03-01T11:13:49;20.42;;;12.98;;
54408;SDS011;40315;48.620;9.828;2023-03-01T11:16:31;18.25;;;12.27;;
54408;SDS011;40315;48.620;9.828;2023-03-01T11:19:01;19.98;;;12.48;;
54408;SDS011;40315;48.620;9.828;2023-03-01T11:21:42;21.52;;;13.52;;
54408;SDS011;40315;48.620;9.828;2023-03-01T11:24:20;21.08;;;12.82;;
54408;SDS011;40315;48.620;9.828;2023-03-01T11:26:53;18.65;;;13.05;;
54408;SDS011;40315;48.620;9.828;2023-03-01T11:29:25;18.88;;;12.40;;
54408;SDS011;40315;48.620;9.828;2023-03-01T11:31:58;18.52;;;12.73;;
54408;SDS011;40315;48.620;9.828;2023-03-01T11:34:31;19.13;;;12.70;;
54408;SDS011;40315;48.620;9.828;2023-03-01T11:37:10;21.00;;;13.43;;
54408;SDS011;40315;48.620;9.828;2023-03-01T11:39:43;18.55;;;12.70;;
54408;SDS011;40315;48.620;9.828;2023-03-01T11:42:17;18.33;;;13.00;;
54408;SDS011;40315;48.620;9.828;2023-03-01T11:44:48;18.25;;;12.95;;
54408;SDS011;40315;48.620;9.828;2023-03-01T11:47:24;17.63;;;12.60;;
54408;SDS011;40315;48.620;9.828;2023-03-01T11:50:07;17.83;;;13.25;;
54408;SDS011;40315;48.620;9.828;2023-03-01T11:52:57;19.08;;;12.80;;
54408;SDS011;40315;48.620;9.828;2023-03-01T11:55:45;17.30;;;12.32;;
54408;SDS011;40315;48.620;9.828;2023-03-01T11:58:34;20.95;;;12.65;;
54408;SDS011;40315;48.620;9.828;2023-03-01T12:01:13;18.85;;;13.15;;
54408;SDS011;40315;48.620;9.828;2023-03-01T12:03:56;20.95;;;13.70;;
54408;SDS011;40315;48.620;9.828;2023-03-01T12:06:39;20.35;;;13.27;;
54408;SDS011;40315;48.620;9.828;2023-03-01T12:09:17;20.98;;;13.50;;
54408;SDS011;40315;48.620;9.828;2023-03-01T12:12:16;19.77;;;13.30;;
54408;SDS011;40315;48.620;9.828;2023-03-01T12:15:09;19.85;;;13.02;;
54408;SDS011;40315;48.620;9.828;2023-03-01T12:18:13;18.20;;;12.27;;
54408;SDS011;40315;48.620;9.828;2023-03-01T12:21:06;18.60;;;13.00;;
54408;SDS011;40315;48.620;9.828;2023-03-01T12:23:55;19.15;;;13.35;;
54408;SDS011;40315;48.620;9.828;2023-03-01T12:26:38;18.63;;;12.45;;
54408;SDS011;40315;48.620;9.828;2023-03-01T12:29:15;17.85;;;12.57;;
54408;SDS011;40315;48.620;9.828;2023-03-01T12:31:55;15.85;;;11.18;;
54408;SDS011;40315;48.620;9.828;2023-03-01T12:35:00;15.50;;;10.40;;
54408;SDS011;40315;48.620;9.828;2023-03-01T12:37:51;15.00;;;10.50;;
54408;SDS011;40315;48.620;9.828;2023-03-01T12:40:26;15.70;;;10.80;;
54408;SDS011;40315;48.620;9.828;2023-03-01T12:43:10;15.95;;;11.13;;
54408;SDS011;40315;48.620;9.828;2023-03-01T12:45:50;16.88;;;10.73;;
54408;SDS011;40315;48.620;9.828;2023-03-01T12:48:31;15.57;;;10.27;;
54408;SDS011;40315;48.620;9.828;2023-03-01T12:51:10;15.77;;;11.05;;
54408;SDS011;40315;48.620;9.828;2023-03-01T12:53:45;15.70;;;11.65;;
54408;SDS011;40315;48.620;9.828;2023-03-01T12:56:15;17.17;;;12.57;;
54408;SDS011;40315;48.620;9.828;2023-03-01T12:58:47;14.35;;;10.55;;
54408;SDS011;40315;48.620;9.828;2023-03-01T13:01:22;14.23;;;10.73;;
54408;SDS011;40315;48.620;9.828;2023-03-01T13:04:05;18.55;;;13.27;;
54408;SDS011;40315;48.620;9.828;2023-03-01T13:06:40;17.48;;;11.82;;
54408;SDS011;40315;48.620;9.828;2023-03-01T13:09:17;18.13;;;14.32;;
54408;SDS011;40315;48.620;9.828;2023-03-01T13:11:51;15.05;;;10.60;;
54408;SDS011;40315;48.620;9.828;2023-03-01T13:17:04;16.33;;;10.27;;
54408;SDS011;40315;48.620;9.828;2023-03-01T13:19:59;16.65;;;10.13;;
54408;SDS011;40315;48.620;9.828;2023-03-01T13:22:26;16.05;;;10.45;;
54408;SDS011;40315;48.620;9.828;2023-03-01T13:25:12;14.30;;;10.55;;
54408;SDS011;40315;48.620;9.828;2023-03-01T13:27:43;13.43;;;10.15;;
54408;SDS011;40315;48.620;9.828;2023-03-01T13:39:26;13.43;;;10.52;;
54408;SDS011;40315;48.620;9.828;2023-03-01T13:41:58;11.85;;;9.65;;
54408;SDS011;40315;48.620;9.828;2023-03-01T13:44:26;12.55;;;9.43;;
54408;SDS011;40315;48.620;9.828;2023-03-01T13:46:59;14.75;;;10.13;;
54408;SDS011;40315;48.620;9.828;2023-03-01T13:49:46;12.65;;;9.57;;
54408;SDS011;40315;48.620;9.828;2023-03-01T13:52:36;13.70;;;9.15;;
54408;SDS011;40315;48.620;9.828;2023-03-01T13:55:06;13.18;;;9.32;;
54408;SDS011;40315;48.620;9.828;2023-03-01T13:57:45;12.93;;;9.15;;
54408;SDS011;40315;48.620;9.828;2023-03-01T14:00:29;13.93;;;9.55;;
54408;SDS011;40315;48.620;9.828;2023-03-01T14:05:57;15.82;;;9.68;;
54408;SDS011;40315;48.620;9.828;2023-03-01T14:08:32;14.90;;;9.80;;
54408;SDS011;40315;48.620;9.828;2023-03-01T14:14:01;15.45;;;9.35;;
54408;SDS011;40315;48.620;9.828;2023-03-01T14:16:42;12.50;;;9.43;;
54408;SDS011;40315;48.620;9.828;2023-03-01T14:19:16;13.52;;;9.27;;
54408;SDS011;40315;48.620;9.828;2023-03-01T14:21:45;15.38;;;9.93;;
54408;SDS011;40315;48.620;9.828;2023-03-01T14:26:48;12.90;;;9.30;;
54408;SDS011;40315;48.620;9.828;2023-03-01T14:29:24;15.18;;;9.50;;
54408;SDS011;40315;48.620;9.828;2023-03-01T14:31:53;13.05;;;9.20;;
54408;SDS011;40315;48.620;9.828;2023-03-01T14:34:24;14.27;;;10.13;;
54408;SDS011;40315;48.620;9.828;2023-03-01T14:36:51;13.15;;;9.35;;
54408;SDS011;40315;48.620;9.828;2023-03-01T14:39:19;14.20;;;9.95;;
54408;SDS011;40315;48.620;9.828;2023-03-01T14:41:50;15.20;;;10.20;;
54408;SDS011;40315;48.620;9.828;2023-03-01T14:44:19;15.25;;;9.80;;
54408;SDS011;40315;48.620;9.828;2023-03-01T14:46:53;14.00;;;10.35;;
54408;SDS011;40315;48.620;9.828;2023-03-01T14:49:25;14.80;;;9.98;;
54408;SDS011;40315;48.620;9.828;2023-03-01T14:51:57;13.77;;;9.50;;
54408;SDS011;40315;48.620;9.828;2023-03-01T14:54:27;14.52;;;10.27;;
54408;SDS011;40315;48.620;9.828;2023-03-01T14:56:58;14.77;;;10.80;;
54408;SDS011;40315;48.620;9.828;2023-03-01T14:59:27;15.43;;;10.40;;
54408;SDS011;40315;48.620;9.828;2023-03-01T15:01:57;13.80;;;10.23;;
54408;SDS011;40315;48.620;9.828;2023-03-01T15:04:26;16.67;;;10.40;;
54408;SDS011;40315;48.620;9.828;2023-03-01T15:06:54;14.82;;;10.18;;
54408;SDS011;40315;48.620;9.828;2023-03-01T15:09:29;13.57;;;10.30;;
54408;SDS011;40315;48.620;9.828;2023-03-01T15:12:00;17.70;;;10.32;;